Latest Coastal Weather Observations for Robe Airport

IDV60701

Issued at 10:02 am EDT Wednesday 17 January 2018 (issued every 10 minutes, with the page automatically refreshed every 10 minutes)

About coastal observations | Map of coastal stations | Coastal observations for VIC | Marine services | Other Formats
Station Details ID: 026105 Name: ROBE AIRFIELD Lat: -37.18 Lon: 139.81 Height: 3.0 m
Data from the previous 72 hours. | See also: Recent months at Robe Airport
Date/Time
EDT
Temp
°C
Wind Pressure Rain since
9am
mm
Weather Cloud Vis
km
Sea
Height
m
Swell
Dir  Spd
kts
Gust
kts
hPa Trend Height
m
Period
s
Dir
17/10:00am 26.7 NE 9 14 1017.1 - 0.0 - - - - - - -
17/09:30am 23.3 NE 9 13 1017.3 - 0.0 - - - - - - -
17/09:00am 20.6 NE 7 11 1017.2 - 0.0 - - - - - - -
17/08:30am 18.5 NNE 3 6 1017.4 - 0.0 - - - - - - -
17/08:00am 17.3 ENE 3 6 1017.1 - 0.0 - - - - - - -
17/07:30am 15.3 E 4 6 1016.7 - 0.0 - - - - - - -
17/07:00am 12.9 ENE 2 5 1016.6 - 0.0 - - - - - - -
17/06:30am 12.8 ENE 4 6 1016.4 - 0.0 - - - - - - -
17/06:00am 13.2 ESE 1 3 1016.4 - 0.0 - - - - - - -
17/05:30am 13.6 ESE 4 6 1016.2 - 0.0 - - - - - - -
17/05:00am 14.3 SE 4 5 1016.1 - 0.0 - - - - - - -
17/04:30am 14.8 SE 6 7 1016.0 - 0.0 - - - - - - -
17/04:00am 15.2 SE 7 8 1016.2 - 0.0 - - - - - - -
17/03:30am 15.9 SE 7 9 1016.3 - 0.0 - - - - - - -
17/03:00am 15.0 SSE 7 9 1016.7 - 0.0 - - - - - - -
17/02:30am 15.0 SE 6 7 1016.9 - 0.0 - - - - - - -
17/02:00am 16.0 SE 5 7 1017.4 - 0.0 - - - - - - -
17/01:30am 16.6 SSE 6 8 1017.6 - 0.0 - - - - - - -
17/01:00am 17.0 SSE 7 10 1018.0 - 0.0 - - - - - - -
17/12:30am 17.4 SSE 7 11 1018.2 - 0.0 - - - - - - -
17/12:00am 17.9 SE 7 10 1018.2 - 0.0 - - - - - - -
 
Date/Time
EDT
Temp
°C
Wind Pressure Rain since
9am
mm
Weather Cloud Vis
km
Sea
Height
m
Swell
Dir  Spd
kts
Gust
kts
hPa Trend Height
m
Period
s
Dir
16/11:30pm 17.7 SSE 8 12 1018.2 - 0.0 - - - - - - -
16/11:00pm 16.6 S 7 9 1018.4 - 0.0 - - - - - - -
16/10:30pm 17.8 SSE 8 13 1018.4 - 0.0 - - - - - - -
16/10:00pm 17.6 SSE 9 13 1018.2 - 0.0 - - - - - - -
16/09:30pm 17.6 S 8 10 1018.1 - 0.0 - - - - - - -
16/09:00pm 19.0 SSE 7 10 1017.9 - 0.0 - - - - - - -
16/08:30pm 20.5 SSE 9 13 1017.7 - 0.0 - - - - - - -
16/08:00pm 21.2 SSE 11 16 1017.9 - 0.0 - - - - - - -
16/07:30pm 21.9 SSE 11 17 1018.0 - 0.0 - - - - - - -
16/07:00pm 22.1 SSE 11 15 1018.1 - 0.0 - - - - - - -
16/06:30pm 23.0 S 12 16 1018.2 - 0.0 - - - - - - -
16/06:00pm 23.3 SSE 14 19 1018.4 - 0.0 - - - - - - -
16/05:30pm 23.9 SSE 14 19 1018.5 - 0.0 - - - - - - -
16/05:00pm 24.6 SSE 12 16 1018.6 - 0.0 - - - - - - -
16/04:30pm 24.5 S 12 17 1018.9 - 0.0 - - - - - - -
16/04:00pm 24.4 S 13 17 1019.2 - 0.0 - - - - - - -
16/03:30pm 24.9 S 12 18 1019.4 - 0.0 - - - - - - -
16/03:00pm 23.8 S 13 18 1019.6 - 0.0 - - - - - - -
16/02:30pm 23.6 SSW 12 17 1019.8 - 0.0 - - - - - - -
16/02:00pm 24.6 SSW 12 17 1020.3 - 0.0 - - - - - - -
16/01:30pm 24.2 S 9 13 1020.4 - 0.0 - - - - - - -
16/01:00pm 24.7 SE 7 12 1021.0 - 0.0 - - - - - - -
16/12:30pm 23.4 SSE 7 11 1021.3 - 0.0 - - - - - - -
16/12:00pm 22.1 SSE 7 11 1021.6 - 0.0 - - - - - - -
16/11:30am 21.9 SE 9 14 1022.2 - 0.0 - - - - - - -
16/11:00am 20.6 ESE 8 12 1022.5 - 0.0 - - - - - - -
16/10:30am 18.8 ESE 10 14 1022.6 - 0.0 - - - - - - -
16/10:00am 17.7 ESE 10 14 1022.8 - 0.0 - - - - - - -
16/09:30am 16.5 SE 12 19 1022.9 - 0.0 - - - - - - -
16/09:00am 15.6 ESE 12 17 1022.9 - 0.0 - - - - - - -
16/08:30am 14.5 ESE 9 13 1022.7 - 0.0 - - - - - - -
16/08:00am 13.6 SE 8 11 1022.5 - 0.0 - - - - - - -
16/07:30am 12.5 SE 5 8 1022.3 - 0.0 - - - - - - -
16/07:00am 11.5 SE 6 8 1021.9 - 0.0 - - - - - - -
16/06:30am 11.4 SE 6 9 1021.6 - 0.0 - - - - - - -
16/06:00am 11.5 SE 6 9 1021.4 - 0.0 - - - - - - -
16/05:30am 11.7 SE 6 9 1021.2 - 0.0 - - - - - - -
16/05:00am 11.7 SE 6 9 1021.2 - 0.0 - - - - - - -
16/04:30am 11.9 SE 7 10 1021.1 - 0.0 - - - - - - -
16/04:00am 12.0 SE 7 9 1021.2 - 0.0 - - - - - - -
16/03:30am 12.3 SE 7 11 1021.4 - 0.0 - - - - - - -
16/03:00am 12.5 SE 7 10 1021.7 - 0.0 - - - - - - -
16/02:30am 12.9 SE 7 10 1022.0 - 0.0 - - - - - - -
16/02:00am 13.5 SE 10 13 1022.3 - 0.0 - - - - - - -
16/01:30am 13.7 SE 10 14 1022.6 - 0.0 - - - - - - -
16/01:00am 14.1 SE 12 17 1022.7 - 0.0 - - - - - - -
16/12:30am 14.6 SE 13 21 1022.7 - 0.0 - - - - - - -
16/12:00am 14.9 SE 12 17 1022.9 - 0.0 - - - - - - -
 
Date/Time
EDT
Temp
°C
Wind Pressure Rain since
9am
mm
Weather Cloud Vis
km
Sea
Height
m
Swell
Dir  Spd
kts
Gust
kts
hPa Trend Height
m
Period
s
Dir
15/11:30pm 15.1 SE 13 19 1022.7 - 0.0 - - - - - - -
15/11:00pm 15.5 SE 15 23 1022.7 - 0.0 - - - - - - -
15/10:30pm 16.0 SE 14 21 1022.5 - 0.0 - - - - - - -
15/10:00pm 16.6 SE 16 27 1022.1 - 0.0 - - - - - - -
15/09:54pm 16.9 SE 16 27 1022.0 - 0.0 - - - - - - -
15/09:30pm 17.5 SE 15 22 1021.9 - 0.0 - - - - - - -
15/09:00pm 18.0 SSE 12 19 1021.7 - 0.0 - - - - - - -
15/08:30pm 18.7 SSE 14 20 1021.5 - 0.0 - - - - - - -
15/08:00pm 19.5 SSE 14 21 1021.3 - 0.0 - - - - - - -
15/07:30pm 20.0 SSE 15 21 1021.2 - 0.0 - - - - - - -
15/07:00pm 20.7 SSE 16 23 1020.9 - 0.0 - - - - - - -
15/06:30pm 21.1 SSE 15 22 1020.8 - 0.0 - - - - - - -
15/06:00pm 20.6 SSE 18 23 1020.6 - 0.0 - - - - - - -
15/05:30pm 21.3 S 18 23 1020.8 - 0.0 - - - - - - -
15/05:00pm 21.6 S 16 22 1020.9 - 0.0 - - - - - - -
15/04:30pm 21.8 S 14 21 1021.1 - 0.0 - - - - - - -
15/04:00pm 21.5 SSE 15 20 1021.3 - 0.0 - - - - - - -
15/03:30pm 21.9 S 13 19 1021.6 - 0.0 - - - - - - -
15/03:00pm 20.9 S 15 21 1021.9 - 0.0 - - - - - - -
15/02:30pm 20.9 S 14 19 1022.3 - 0.0 - - - - - - -
15/02:00pm 20.2 S 15 21 1022.6 - 0.0 - - - - - - -
15/01:30pm 20.8 SSE 12 20 1022.9 - 0.0 - - - - - - -
15/01:00pm 20.7 SSE 11 16 1023.1 - 0.0 - - - - - - -
15/12:30pm 20.1 SSE 11 17 1023.2 - 0.0 - - - - - - -
15/12:00pm 20.4 SSE 9 15 1023.3 - 0.0 - - - - - - -
15/11:30am 20.4 SSE 10 15 1023.4 - 0.0 - - - - - - -
15/11:00am 20.0 SSE 9 15 1023.4 - 0.0 - - - - - - -
15/10:30am 20.1 SE 10 14 1023.4 - 0.0 - - - - - - -
15/10:00am 19.5 S 11 15 1023.5 - 0.0 - - - - - - -
15/09:30am 18.5 S 10 15 1023.3 - 0.0 - - - - - - -
15/09:00am 18.1 SSE 9 16 1023.0 - 0.0 - - - - - - -
15/08:30am 17.5 SSE 7 10 1022.6 - 0.0 - - - - - - -
15/08:00am 17.0 SSE 8 10 1022.3 - 0.0 - - - - - - -
15/07:30am 16.1 SSE 6 8 1021.8 - 0.0 - - - - - - -
15/07:00am 16.4 S 5 8 1021.6 - 0.0 - - - - - - -
15/06:30am 16.4 SSE 7 10 1021.4 - 0.0 - - - - - - -
15/06:00am 16.6 S 8 12 1021.3 - 0.0 - - - - - - -
15/05:30am 16.6 S 8 12 1021.0 - 0.0 - - - - - - -
15/05:00am 16.3 S 8 12 1020.8 - 0.0 - - - - - - -
15/04:30am 16.4 S 9 13 1020.7 - 0.0 - - - - - - -
15/04:00am 16.2 SSW 9 13 1020.8 - 0.0 - - - - - - -
15/03:30am 16.3 S 9 14 1021.1 - 0.0 - - - - - - -
15/03:00am 15.8 S 7 10 1021.3 - 0.0 - - - - - - -
15/02:30am 14.4 S 5 6 1021.6 - 0.0 - - - - - - -
15/02:00am 13.7 S 4 5 1021.7 - 0.0 - - - - - - -
15/01:30am 13.5 S 2 3 1021.9 - 0.0 - - - - - - -
15/01:00am 13.4 S 4 5 1022.0 - 0.0 - - - - - - -
15/12:30am 13.5 S 4 5 1022.3 - 0.0 - - - - - - -
15/12:00am 13.5 S 3 3 1022.3 - 0.0 - - - - - - -
 
Date/Time
EDT
Temp
°C
Wind Pressure Rain since
9am
mm
Weather Cloud Vis
km
Sea
Height
m
Swell
Dir  Spd
kts
Gust
kts
hPa Trend Height
m
Period
s
Dir
14/11:30pm 13.9 S 4 6 1022.3 - 0.0 - - - - - - -
14/11:00pm 14.3 SSE 4 5 1022.6 - 0.0 - - - - - - -
14/10:30pm 14.5 SSE 6 7 1022.7 - 0.0 - - - - - - -
14/10:00pm 14.8 SSE 6 8 1022.6 - 0.0 - - - - - - -
14/09:30pm 15.3 S 6 8 1022.4 - 0.0 - - - - - - -
14/09:00pm 15.8 S 9 12 1022.2 - 0.0 - - - - - - -
14/08:30pm 16.4 S 11 15 1022.1 - 0.0 - - - - - - -
14/08:00pm 17.0 S 11 15 1021.8 - 0.0 - - - - - - -
14/07:30pm 17.6 S 12 18 1021.7 - 0.0 - - - - - - -
14/07:00pm 17.7 S 13 18 1021.5 - 0.0 - - - - - - -
14/06:30pm 18.2 S 13 19 1021.3 - 0.0 - - - - - - -
14/06:00pm 18.6 S 12 17 1021.3 - 0.0 - - - - - - -
14/05:30pm 18.6 S 14 19 1021.5 - 0.0 - - - - - - -
14/05:00pm 19.1 S 13 18 1021.5 - 0.0 - - - - - - -
14/04:30pm 19.6 S 12 19 1021.4 - 0.0 - - - - - - -
14/04:00pm 19.2 S 13 20 1021.4 - 0.0 - - - - - - -
14/03:30pm 19.0 S 14 21 1021.5 - 0.0 - - - - - - -
14/03:00pm 19.1 SSW 13 21 1021.4 - 0.0 - - - - - - -
14/02:30pm 19.6 SSW 12 18 1021.5 - 0.0 - - - - - - -
14/02:00pm 19.2 SSW 13 19 1021.6 - 0.0 - - - - - - -
14/01:30pm 19.2 S 11 16 1021.7 - 0.0 - - - - - - -
14/01:00pm 18.6 SSW 10 17 1021.7 - 0.0 - - - - - - -
14/12:30pm 19.0 SSW 12 17 1021.6 - 0.0 - - - - - - -
14/12:00pm 18.8 SSW 11 15 1021.7 - 0.0 - - - - - - -
14/11:30am 18.6 S 10 15 1021.6 - 0.0 - - - - - - -
14/11:00am 18.8 S 8 15 1021.4 - 0.0 - - - - - - -

Other Formats:

Comma delimited format used in spreadsheet applications
http://www.bom.gov.au/fwo/IDV60701/IDV60701.95816.axf

JavaScript Object Notation format (JSON) in row-major order
http://www.bom.gov.au/fwo/IDV60701/IDV60701.95816.json